sensor_id;sensor_type;location;lat;lon;timestamp;pressure;altitude;pressure_sealevel;temperature;humidity
18858;BME280;9558;50.178;8.370;2022-10-30T00:00:40;98600.84;;;13.17;100.00
18858;BME280;9558;50.178;8.370;2022-10-30T00:03:09;98598.53;;;13.22;100.00
18858;BME280;9558;50.178;8.370;2022-10-30T00:05:39;98587.25;;;13.15;100.00
18858;BME280;9558;50.178;8.370;2022-10-30T00:08:05;98588.22;;;13.14;100.00
18858;BME280;9558;50.178;8.370;2022-10-30T00:10:33;98581.78;;;13.10;100.00
18858;BME280;9558;50.178;8.370;2022-10-30T00:13:00;98577.59;;;13.09;100.00
18858;BME280;9558;50.178;8.370;2022-10-30T00:15:26;98579.16;;;13.10;100.00
18858;BME280;9558;50.178;8.370;2022-10-30T00:17:53;98582.03;;;13.15;100.00
18858;BME280;9558;50.178;8.370;2022-10-30T00:20:19;98586.59;;;13.13;100.00
18858;BME280;9558;50.178;8.370;2022-10-30T00:22:46;98587.25;;;13.15;100.00
18858;BME280;9558;50.178;8.370;2022-10-30T00:25:12;98582.66;;;13.17;100.00
18858;BME280;9558;50.178;8.370;2022-10-30T00:27:40;98594.50;;;13.20;100.00
18858;BME280;9558;50.178;8.370;2022-10-30T00:30:08;98592.88;;;13.19;100.00
18858;BME280;9558;50.178;8.370;2022-10-30T00:32:34;98581.06;;;13.16;100.00
18858;BME280;9558;50.178;8.370;2022-10-30T00:35:01;98593.69;;;13.19;100.00
18858;BME280;9558;50.178;8.370;2022-10-30T00:37:27;98589.28;;;13.20;100.00
18858;BME280;9558;50.178;8.370;2022-10-30T00:39:53;98602.09;;;13.21;100.00
18858;BME280;9558;50.178;8.370;2022-10-30T00:42:20;98596.91;;;13.21;100.00
18858;BME280;9558;50.178;8.370;2022-10-30T00:44:50;98591.34;;;13.24;100.00
18858;BME280;9558;50.178;8.370;2022-10-30T00:47:19;98585.78;;;13.27;100.00
18858;BME280;9558;50.178;8.370;2022-10-30T00:49:53;98590.72;;;13.22;100.00
18858;BME280;9558;50.178;8.370;2022-10-30T00:52:23;98587.94;;;13.24;100.00
18858;BME280;9558;50.178;8.370;2022-10-30T00:54:52;98590.72;;;13.22;100.00
18858;BME280;9558;50.178;8.370;2022-10-30T00:57:19;98591.34;;;13.24;100.00
18858;BME280;9558;50.178;8.370;2022-10-30T00:59:48;98592.34;;;13.23;100.00
18858;BME280;9558;50.178;8.370;2022-10-30T01:02:15;98597.19;;;13.26;100.00
18858;BME280;9558;50.178;8.370;2022-10-30T01:04:43;98592.59;;;13.28;100.00
18858;BME280;9558;50.178;8.370;2022-10-30T01:07:13;98584.97;;;13.27;100.00
18858;BME280;9558;50.178;8.370;2022-10-30T01:09:40;98580.56;;;13.27;100.00
18858;BME280;9558;50.178;8.370;2022-10-30T01:12:07;98584.19;;;13.26;100.00
18858;BME280;9558;50.178;8.370;2022-10-30T01:14:35;98579.97;;;13.25;100.00
18858;BME280;9558;50.178;8.370;2022-10-30T01:17:14;98577.38;;;13.25;100.00
18858;BME280;9558;50.178;8.370;2022-10-30T01:19:53;98572.78;;;13.27;100.00
18858;BME280;9558;50.178;8.370;2022-10-30T01:22:35;98577.38;;;13.25;100.00
18858;BME280;9558;50.178;8.370;2022-10-30T01:25:13;98580.94;;;13.24;100.00
18858;BME280;9558;50.178;8.370;2022-10-30T01:27:49;98580.94;;;13.24;100.00
18858;BME280;9558;50.178;8.370;2022-10-30T01:30:29;98569.94;;;13.22;100.00
18858;BME280;9558;50.178;8.370;2022-10-30T01:33:10;98569.75;;;13.24;100.00
18858;BME280;9558;50.178;8.370;2022-10-30T01:35:48;98565.34;;;13.24;100.00
18858;BME280;9558;50.178;8.370;2022-10-30T01:38:20;98572.53;;;13.22;100.00
18858;BME280;9558;50.178;8.370;2022-10-30T01:40:49;98571.75;;;13.22;100.00
18858;BME280;9558;50.178;8.370;2022-10-30T01:43:15;98569.28;;;13.20;100.00
18858;BME280;9558;50.178;8.370;2022-10-30T01:46:04;98576.94;;;13.22;100.00
18858;BME280;9558;50.178;8.370;2022-10-30T01:49:00;98560.69;;;13.20;100.00
18858;BME280;9558;50.178;8.370;2022-10-30T01:51:42;98575.88;;;13.16;100.00
18858;BME280;9558;50.178;8.370;2022-10-30T01:54:18;98578.47;;;13.16;100.00
18858;BME280;9558;50.178;8.370;2022-10-30T01:56:54;98578.97;;;13.11;100.00
18858;BME280;9558;50.178;8.370;2022-10-30T01:59:28;98582.22;;;13.13;100.00
18858;BME280;9558;50.178;8.370;2022-10-30T02:01:56;98581.16;;;13.08;100.00
18858;BME280;9558;50.178;8.370;2022-10-30T02:04:25;98585.91;;;13.04;100.00
18858;BME280;9558;50.178;8.370;2022-10-30T02:06:52;98579.91;;;13.04;100.00
18858;BME280;9558;50.178;8.370;2022-10-30T02:09:18;98581.84;;;13.02;100.00
18858;BME280;9558;50.178;8.370;2022-10-30T02:11:46;98586.44;;;13.00;100.00
18858;BME280;9558;50.178;8.370;2022-10-30T02:14:17;98587.41;;;12.99;100.00
18858;BME280;9558;50.178;8.370;2022-10-30T02:16:48;98570.84;;;13.00;100.00
18858;BME280;9558;50.178;8.370;2022-10-30T02:19:15;98568.63;;;12.96;100.00
18858;BME280;9558;50.178;8.370;2022-10-30T02:21:43;98566.03;;;12.96;100.00
18858;BME280;9558;50.178;8.370;2022-10-30T02:24:10;98573.03;;;12.96;100.00
18858;BME280;9558;50.178;8.370;2022-10-30T02:26:36;98582.59;;;12.95;100.00
18858;BME280;9558;50.178;8.370;2022-10-30T02:29:03;98589.03;;;13.00;100.00
18858;BME280;9558;50.178;8.370;2022-10-30T02:31:30;98574.72;;;13.04;100.00
18858;BME280;9558;50.178;8.370;2022-10-30T02:33:56;98577.91;;;13.06;100.00
18858;BME280;9558;50.178;8.370;2022-10-30T02:36:23;98576.75;;;13.08;100.00
18858;BME280;9558;50.178;8.370;2022-10-30T02:38:50;98577.59;;;13.09;100.00
18858;BME280;9558;50.178;8.370;2022-10-30T02:41:19;98586.00;;;13.11;100.00
18858;BME280;9558;50.178;8.370;2022-10-30T02:43:46;98596.38;;;13.11;100.00
18858;BME280;9558;50.178;8.370;2022-10-30T02:46:12;98588.41;;;13.12;100.00
18858;BME280;9558;50.178;8.370;2022-10-30T02:48:39;98586.09;;;13.18;100.00
18858;BME280;9558;50.178;8.370;2022-10-30T02:51:05;98584.88;;;13.20;100.00
18858;BME280;9558;50.178;8.370;2022-10-30T02:53:32;98580.31;;;13.22;100.00
18858;BME280;9558;50.178;8.370;2022-10-30T02:56:03;98576.75;;;13.23;100.00
18858;BME280;9558;50.178;8.370;2022-10-30T02:58:30;98563.38;;;13.26;100.00
18858;BME280;9558;50.178;8.370;2022-10-30T03:00:56;98564.97;;;13.27;100.00
18858;BME280;9558;50.178;8.370;2022-10-30T03:03:23;98556.56;;;13.25;100.00
18858;BME280;9558;50.178;8.370;2022-10-30T03:05:49;98563.38;;;13.26;100.00
18858;BME280;9558;50.178;8.370;2022-10-30T03:08:15;98572.16;;;13.25;100.00
18858;BME280;9558;50.178;8.370;2022-10-30T03:10:42;98578.72;;;13.21;100.00
18858;BME280;9558;50.178;8.370;2022-10-30T03:13:10;98572.53;;;13.22;100.00
18858;BME280;9558;50.178;8.370;2022-10-30T03:15:36;98576.66;;;13.17;100.00
18858;BME280;9558;50.178;8.370;2022-10-30T03:18:03;98574.25;;;13.15;100.00
18858;BME280;9558;50.178;8.370;2022-10-30T03:20:29;98576.75;;;13.08;100.00
18858;BME280;9558;50.178;8.370;2022-10-30T03:22:56;98575.50;;;13.04;100.00
18858;BME280;9558;50.178;8.370;2022-10-30T03:25:22;98571.94;;;13.05;100.00
18858;BME280;9558;50.178;8.370;2022-10-30T03:27:48;98577.03;;;12.99;100.00
18858;BME280;9558;50.178;8.370;2022-10-30T03:30:16;98575.16;;;12.92;100.00
18858;BME280;9558;50.178;8.370;2022-10-30T03:32:43;98558.97;;;12.90;100.00
18858;BME280;9558;50.178;8.370;2022-10-30T03:35:09;98558.50;;;12.87;100.00
18858;BME280;9558;50.178;8.370;2022-10-30T03:37:36;98560.13;;;12.88;100.00
18858;BME280;9558;50.178;8.370;2022-10-30T03:40:02;98563.22;;;12.83;100.00
18858;BME280;9558;50.178;8.370;2022-10-30T03:42:29;98558.41;;;12.80;100.00
18858;BME280;9558;50.178;8.370;2022-10-30T03:44:55;98559.41;;;12.79;100.00
18858;BME280;9558;50.178;8.370;2022-10-30T03:47:23;98555.19;;;12.78;100.00
18858;BME280;9558;50.178;8.370;2022-10-30T03:49:49;98557.16;;;12.76;100.00
18858;BME280;9558;50.178;8.370;2022-10-30T03:52:16;98562.53;;;12.74;100.00
18858;BME280;9558;50.178;8.370;2022-10-30T03:54:42;98562.28;;;12.69;100.00
18858;BME280;9558;50.178;8.370;2022-10-30T03:57:09;98566.63;;;12.69;100.00
18858;BME280;9558;50.178;8.370;2022-10-30T03:59:35;98571.22;;;12.67;100.00
18858;BME280;9558;50.178;8.370;2022-10-30T04:02:02;98569.16;;;12.62;100.00
18858;BME280;9558;50.178;8.370;2022-10-30T04:04:29;98570.94;;;12.61;100.00
18858;BME280;9558;50.178;8.370;2022-10-30T04:06:56;98564.94;;;12.61;100.00
18858;BME280;9558;50.178;8.370;2022-10-30T04:09:22;98560.22;;;12.65;100.00
18858;BME280;9558;50.178;8.370;2022-10-30T04:11:49;98557.34;;;12.59;100.00
18858;BME280;9558;50.178;8.370;2022-10-30T04:14:15;98552.50;;;12.56;100.00
18858;BME280;9558;50.178;8.370;2022-10-30T04:16:41;98549.28;;;12.54;100.00
18858;BME280;9558;50.178;8.370;2022-10-30T04:19:08;98554.47;;;12.54;100.00
18858;BME280;9558;50.178;8.370;2022-10-30T04:21:36;98559.66;;;12.54;100.00
18858;BME280;9558;50.178;8.370;2022-10-30T04:24:02;98554.47;;;12.54;100.00
18858;BME280;9558;50.178;8.370;2022-10-30T04:26:29;98545.69;;;12.55;100.00
18858;BME280;9558;50.178;8.370;2022-10-30T04:28:55;98554.09;;;12.57;100.00
18858;BME280;9558;50.178;8.370;2022-10-30T04:31:22;98553.50;;;12.55;100.00
18858;BME280;9558;50.178;8.370;2022-10-30T04:33:48;98551.25;;;12.52;100.00
18858;BME280;9558;50.178;8.370;2022-10-30T04:36:15;98551.25;;;12.52;100.00
18858;BME280;9558;50.178;8.370;2022-10-30T04:38:44;98546.84;;;12.53;100.00
18858;BME280;9558;50.178;8.370;2022-10-30T04:41:10;98552.41;;;12.50;100.00
18858;BME280;9558;50.178;8.370;2022-10-30T04:43:37;98550.97;;;12.47;100.00
18858;BME280;9558;50.178;8.370;2022-10-30T04:46:04;98551.78;;;12.48;100.00
18858;BME280;9558;50.178;8.370;2022-10-30T04:48:30;98543.53;;;12.44;100.00
18858;BME280;9558;50.178;8.370;2022-10-30T04:50:59;98549.44;;;12.38;100.00
18858;BME280;9558;50.178;8.370;2022-10-30T04:53:25;98551.75;;;12.33;100.00
18858;BME280;9558;50.178;8.370;2022-10-30T04:55:53;98554.72;;;12.30;100.00
18858;BME280;9558;50.178;8.370;2022-10-30T04:58:20;98561.06;;;12.27;100.00
18858;BME280;9558;50.178;8.370;2022-10-30T05:00:46;98562.19;;;12.24;100.00
18858;BME280;9558;50.178;8.370;2022-10-30T05:03:17;98552.34;;;12.20;100.00
18858;BME280;9558;50.178;8.370;2022-10-30T05:05:44;98558.44;;;12.12;100.00
18858;BME280;9558;50.178;8.370;2022-10-30T05:08:10;98557.16;;;12.08;100.00
18858;BME280;9558;50.178;8.370;2022-10-30T05:10:37;98555.13;;;12.03;100.00
18858;BME280;9558;50.178;8.370;2022-10-30T05:13:05;98553.84;;;11.99;100.00
18858;BME280;9558;50.178;8.370;2022-10-30T05:15:32;98547.22;;;11.97;100.00
18858;BME280;9558;50.178;8.370;2022-10-30T05:17:58;98531.16;;;11.93;100.00
18858;BME280;9558;50.178;8.370;2022-10-30T05:20:25;98535.88;;;11.89;100.00
18858;BME280;9558;50.178;8.370;2022-10-30T05:22:55;98546.63;;;11.86;100.00
18858;BME280;9558;50.178;8.370;2022-10-30T05:25:22;98540.16;;;11.82;100.00
18858;BME280;9558;50.178;8.370;2022-10-30T05:27:48;98548.13;;;11.81;100.00
18858;BME280;9558;50.178;8.370;2022-10-30T05:30:16;98553.00;;;11.75;100.00
18858;BME280;9558;50.178;8.370;2022-10-30T05:32:43;98540.56;;;11.71;100.00
18858;BME280;9558;50.178;8.370;2022-10-30T05:35:09;98540.44;;;11.64;100.00
18858;BME280;9558;50.178;8.370;2022-10-30T05:37:35;98544.53;;;11.58;100.00
18858;BME280;9558;50.178;8.370;2022-10-30T05:40:02;98539.69;;;11.55;100.00
18858;BME280;9558;50.178;8.370;2022-10-30T05:42:29;98547.19;;;11.50;100.00
18858;BME280;9558;50.178;8.370;2022-10-30T05:44:55;98542.31;;;11.47;100.00
18858;BME280;9558;50.178;8.370;2022-10-30T05:47:23;98547.06;;;11.44;100.00
18858;BME280;9558;50.178;8.370;2022-10-30T05:49:49;98541.06;;;11.43;100.00
18858;BME280;9558;50.178;8.370;2022-10-30T05:52:16;98549.53;;;11.37;100.00
18858;BME280;9558;50.178;8.370;2022-10-30T05:54:42;98560.84;;;11.36;100.00
18858;BME280;9558;50.178;8.370;2022-10-30T05:57:09;98555.22;;;11.32;100.00
18858;BME280;9558;50.178;8.370;2022-10-30T05:59:35;98557.31;;;11.29;100.00
18858;BME280;9558;50.178;8.370;2022-10-30T06:02:02;98557.69;;;11.26;100.00
18858;BME280;9558;50.178;8.370;2022-10-30T06:04:29;98561.41;;;11.23;100.00
18858;BME280;9558;50.178;8.370;2022-10-30T06:06:56;98564.16;;;11.21;100.00
18858;BME280;9558;50.178;8.370;2022-10-30T06:09:22;98560.16;;;11.19;100.00
18858;BME280;9558;50.178;8.370;2022-10-30T06:11:49;98563.88;;;11.16;100.00
18858;BME280;9558;50.178;8.370;2022-10-30T06:14:15;98563.22;;;11.14;100.00
18858;BME280;9558;50.178;8.370;2022-10-30T06:16:42;98568.75;;;11.11;100.00
18858;BME280;9558;50.178;8.370;2022-10-30T06:19:08;98570.72;;;11.09;100.00
18858;BME280;9558;50.178;8.370;2022-10-30T06:21:36;98565.88;;;11.06;100.00
18858;BME280;9558;50.178;8.370;2022-10-30T06:24:03;98572.03;;;11.05;100.00
18858;BME280;9558;50.178;8.370;2022-10-30T06:26:29;98571.06;;;11.06;100.00
18858;BME280;9558;50.178;8.370;2022-10-30T06:28:56;98574.13;;;11.01;100.00
18858;BME280;9558;50.178;8.370;2022-10-30T06:31:22;98576.88;;;11.00;100.00
18858;BME280;9558;50.178;8.370;2022-10-30T06:33:49;98568.16;;;11.01;100.00
18858;BME280;9558;50.178;8.370;2022-10-30T06:36:15;98573.66;;;10.98;100.00
18858;BME280;9558;50.178;8.370;2022-10-30T06:38:43;98573.00;;;10.96;100.00
18858;BME280;9558;50.178;8.370;2022-10-30T06:41:10;98568.84;;;10.95;100.00
18858;BME280;9558;50.178;8.370;2022-10-30T06:43:36;98567.03;;;10.95;100.00
18858;BME280;9558;50.178;8.370;2022-10-30T06:46:03;98567.22;;;10.94;100.00
18858;BME280;9558;50.178;8.370;2022-10-30T06:48:30;98567.22;;;10.94;100.00
18858;BME280;9558;50.178;8.370;2022-10-30T06:50:58;98572.22;;;10.95;100.00
18858;BME280;9558;50.178;8.370;2022-10-30T06:53:25;98570.09;;;10.99;100.00
18858;BME280;9558;50.178;8.370;2022-10-30T06:55:57;98557.78;;;11.01;100.00
18858;BME280;9558;50.178;8.370;2022-10-30T06:58:24;98564.25;;;11.05;100.00
18858;BME280;9558;50.178;8.370;2022-10-30T07:00:51;98565.53;;;11.09;100.00
18858;BME280;9558;50.178;8.370;2022-10-30T07:03:18;98564.06;;;11.15;100.00
18858;BME280;9558;50.178;8.370;2022-10-30T07:05:44;98565.16;;;11.20;100.00
18858;BME280;9558;50.178;8.370;2022-10-30T07:08:11;98574.84;;;11.27;100.00
18858;BME280;9558;50.178;8.370;2022-10-30T07:10:37;98572.56;;;11.32;100.00
18858;BME280;9558;50.178;8.370;2022-10-30T07:13:05;98572.50;;;11.40;100.00
18858;BME280;9558;50.178;8.370;2022-10-30T07:15:31;98568.25;;;11.47;100.00
18858;BME280;9558;50.178;8.370;2022-10-30T07:18:00;98570.00;;;11.55;100.00
18858;BME280;9558;50.178;8.370;2022-10-30T07:20:29;98561.19;;;11.64;100.00
18858;BME280;9558;50.178;8.370;2022-10-30T07:22:55;98568.72;;;11.74;100.00
18858;BME280;9558;50.178;8.370;2022-10-30T07:25:22;98576.28;;;11.84;100.00
18858;BME280;9558;50.178;8.370;2022-10-30T07:27:51;98569.94;;;11.95;100.00
18858;BME280;9558;50.178;8.370;2022-10-30T07:30:21;98572.09;;;12.06;100.00
18858;BME280;9558;50.178;8.370;2022-10-30T07:32:55;98567.13;;;12.19;100.00
18858;BME280;9558;50.178;8.370;2022-10-30T07:35:22;98572.88;;;12.30;100.00
18858;BME280;9558;50.178;8.370;2022-10-30T07:37:49;98564.94;;;12.46;100.00
18858;BME280;9558;50.178;8.370;2022-10-30T07:40:15;98578.28;;;12.58;100.00
18858;BME280;9558;50.178;8.370;2022-10-30T07:42:42;98574.09;;;12.72;100.00
18858;BME280;9558;50.178;8.370;2022-10-30T07:45:08;98581.69;;;12.88;100.00
18858;BME280;9558;50.178;8.370;2022-10-30T07:47:39;98583.75;;;13.38;100.00
18858;BME280;9558;50.178;8.370;2022-10-30T07:50:06;98588.00;;;14.04;100.00
18858;BME280;9558;50.178;8.370;2022-10-30T07:52:33;98592.72;;;14.72;100.00
18858;BME280;9558;50.178;8.370;2022-10-30T07:55:00;98579.78;;;15.40;100.00
18858;BME280;9558;50.178;8.370;2022-10-30T07:57:29;98583.97;;;16.10;100.00
18858;BME280;9558;50.178;8.370;2022-10-30T07:59:56;98587.50;;;16.75;100.00
18858;BME280;9558;50.178;8.370;2022-10-30T08:02:23;98593.34;;;17.43;100.00
18858;BME280;9558;50.178;8.370;2022-10-30T08:04:50;98589.38;;;18.04;100.00
18858;BME280;9558;50.178;8.370;2022-10-30T08:07:17;98596.56;;;18.59;100.00
18858;BME280;9558;50.178;8.370;2022-10-30T08:09:44;98593.25;;;19.08;96.57
18858;BME280;9558;50.178;8.370;2022-10-30T08:12:11;98610.47;;;19.52;93.03
18858;BME280;9558;50.178;8.370;2022-10-30T08:14:38;98609.69;;;19.94;91.51
18858;BME280;9558;50.178;8.370;2022-10-30T08:17:04;98612.63;;;20.28;87.91
18858;BME280;9558;50.178;8.370;2022-10-30T08:19:31;98614.13;;;20.60;85.97
18858;BME280;9558;50.178;8.370;2022-10-30T08:21:59;98617.78;;;20.82;84.49
18858;BME280;9558;50.178;8.370;2022-10-30T08:24:26;98606.41;;;21.05;80.24
18858;BME280;9558;50.178;8.370;2022-10-30T08:26:53;98609.28;;;21.04;80.32
18858;BME280;9558;50.178;8.370;2022-10-30T08:29:19;98606.53;;;20.99;80.58
18858;BME280;9558;50.178;8.370;2022-10-30T08:31:47;98618.13;;;20.86;81.38
18858;BME280;9558;50.178;8.370;2022-10-30T08:34:13;98602.66;;;20.66;81.65
18858;BME280;9558;50.178;8.370;2022-10-30T08:36:40;98605.88;;;20.44;82.68
18858;BME280;9558;50.178;8.370;2022-10-30T08:39:08;98606.44;;;20.23;83.36
18858;BME280;9558;50.178;8.370;2022-10-30T08:41:35;98601.28;;;20.04;83.93
18858;BME280;9558;50.178;8.370;2022-10-30T08:44:02;98599.19;;;19.82;84.85
18858;BME280;9558;50.178;8.370;2022-10-30T08:46:29;98594.41;;;19.61;84.26
18858;BME280;9558;50.178;8.370;2022-10-30T08:48:56;98609.47;;;19.35;85.88
18858;BME280;9558;50.178;8.370;2022-10-30T08:51:23;98608.34;;;19.12;87.33
18858;BME280;9558;50.178;8.370;2022-10-30T08:53:49;98598.50;;;18.89;88.74
18858;BME280;9558;50.178;8.370;2022-10-30T08:56:17;98596.41;;;18.73;89.68
18858;BME280;9558;50.178;8.370;2022-10-30T08:58:44;98600.59;;;18.62;90.97
18858;BME280;9558;50.178;8.370;2022-10-30T09:01:10;98597.19;;;18.55;91.89
18858;BME280;9558;50.178;8.370;2022-10-30T09:03:37;98599.06;;;18.47;91.80
18858;BME280;9558;50.178;8.370;2022-10-30T09:06:04;98598.34;;;18.40;92.77
18858;BME280;9558;50.178;8.370;2022-10-30T09:08:30;98600.38;;;18.38;93.04
18858;BME280;9558;50.178;8.370;2022-10-30T09:10:57;98591.56;;;18.33;90.85
18858;BME280;9558;50.178;8.370;2022-10-30T09:13:25;98597.59;;;18.33;93.53
18858;BME280;9558;50.178;8.370;2022-10-30T09:15:52;98590.78;;;18.32;93.75
18858;BME280;9558;50.178;8.370;2022-10-30T09:18:19;98589.16;;;18.31;93.66
18858;BME280;9558;50.178;8.370;2022-10-30T09:20:47;98598.03;;;18.30;93.19
18858;BME280;9558;50.178;8.370;2022-10-30T09:23:14;98597.22;;;18.29;94.05
18858;BME280;9558;50.178;8.370;2022-10-30T09:25:40;98588.56;;;18.29;93.01
18858;BME280;9558;50.178;8.370;2022-10-30T09:28:07;98593.00;;;18.28;94.45
18858;BME280;9558;50.178;8.370;2022-10-30T09:30:34;98587.19;;;18.26;93.67
18858;BME280;9558;50.178;8.370;2022-10-30T09:33:01;98593.78;;;18.29;94.75
18858;BME280;9558;50.178;8.370;2022-10-30T09:35:28;98593.16;;;18.34;95.47
18858;BME280;9558;50.178;8.370;2022-10-30T09:37:54;98590.34;;;18.35;95.78
18858;BME280;9558;50.178;8.370;2022-10-30T09:40:23;98598.78;;;18.37;95.96
18858;BME280;9558;50.178;8.370;2022-10-30T09:42:56;98596.75;;;18.39;94.07
18858;BME280;9558;50.178;8.370;2022-10-30T09:45:47;98597.94;;;18.43;95.99
18858;BME280;9558;50.178;8.370;2022-10-30T09:48:39;98596.66;;;18.46;94.91
18858;BME280;9558;50.178;8.370;2022-10-30T09:51:20;98591.81;;;18.50;95.79
18858;BME280;9558;50.178;8.370;2022-10-30T09:53:59;98606.88;;;18.54;93.52
18858;BME280;9558;50.178;8.370;2022-10-30T09:56:32;98597.78;;;18.57;95.62
18858;BME280;9558;50.178;8.370;2022-10-30T09:59:07;98606.63;;;18.62;95.39
18858;BME280;9558;50.178;8.370;2022-10-30T10:01:41;98607.56;;;18.68;96.33
18858;BME280;9558;50.178;8.370;2022-10-30T10:04:20;98601.88;;;18.71;95.86
18858;BME280;9558;50.178;8.370;2022-10-30T10:06:52;98603.28;;;18.74;93.87
18858;BME280;9558;50.178;8.370;2022-10-30T10:09:24;98602.41;;;18.80;96.20
18858;BME280;9558;50.178;8.370;2022-10-30T10:11:54;98595.91;;;18.82;95.60
18858;BME280;9558;50.178;8.370;2022-10-30T10:14:23;98602.38;;;18.87;95.26
18858;BME280;9558;50.178;8.370;2022-10-30T10:16:54;98598.28;;;18.91;94.34
18858;BME280;9558;50.178;8.370;2022-10-30T10:19:25;98601.25;;;18.94;94.35
18858;BME280;9558;50.178;8.370;2022-10-30T10:21:56;98596.97;;;19.00;93.00
18858;BME280;9558;50.178;8.370;2022-10-30T10:24:25;98594.44;;;18.93;89.53
18858;BME280;9558;50.178;8.370;2022-10-30T10:26:55;98592.59;;;18.94;91.34
18858;BME280;9558;50.178;8.370;2022-10-30T10:29:31;98595.78;;;18.96;90.87
18858;BME280;9558;50.178;8.370;2022-10-30T10:32:18;98582.69;;;18.96;88.41
18858;BME280;9558;50.178;8.370;2022-10-30T10:35:03;98579.63;;;18.99;90.39
18858;BME280;9558;50.178;8.370;2022-10-30T10:37:39;98587.63;;;19.04;91.50
18858;BME280;9558;50.178;8.370;2022-10-30T10:40:35;98576.69;;;19.07;89.01
18858;BME280;9558;50.178;8.370;2022-10-30T10:43:14;98576.63;;;19.14;90.72
18858;BME280;9558;50.178;8.370;2022-10-30T10:45:49;98578.16;;;19.22;91.73
18858;BME280;9558;50.178;8.370;2022-10-30T10:48:40;98576.13;;;19.24;84.21
18858;BME280;9558;50.178;8.370;2022-10-30T10:51:13;98582.06;;;19.31;84.55
18858;BME280;9558;50.178;8.370;2022-10-30T10:53:43;98580.63;;;19.35;90.04
18858;BME280;9558;50.178;8.370;2022-10-30T10:56:12;98584.19;;;19.41;86.87
18858;BME280;9558;50.178;8.370;2022-10-30T10:58:44;98578.25;;;19.45;85.77
18858;BME280;9558;50.178;8.370;2022-10-30T11:01:16;98582.81;;;19.50;80.25
18858;BME280;9558;50.178;8.370;2022-10-30T11:03:51;98585.72;;;19.60;83.44
18858;BME280;9558;50.178;8.370;2022-10-30T11:06:21;98573.50;;;19.66;83.49
18858;BME280;9558;50.178;8.370;2022-10-30T11:08:51;98575.13;;;19.67;81.61
18858;BME280;9558;50.178;8.370;2022-10-30T11:11:18;98582.09;;;19.73;82.80
18858;BME280;9558;50.178;8.370;2022-10-30T11:13:45;98578.63;;;19.79;81.60
18858;BME280;9558;50.178;8.370;2022-10-30T11:16:25;98575.53;;;19.82;81.19
18858;BME280;9558;50.178;8.370;2022-10-30T11:18:57;98574.41;;;19.90;81.31
18858;BME280;9558;50.178;8.370;2022-10-30T11:21:26;98578.78;;;19.96;79.59
18858;BME280;9558;50.178;8.370;2022-10-30T11:23:54;98571.31;;;19.93;75.57
18858;BME280;9558;50.178;8.370;2022-10-30T11:26:26;98571.00;;;20.01;79.40
18858;BME280;9558;50.178;8.370;2022-10-30T11:28:55;98568.72;;;20.05;80.33
18858;BME280;9558;50.178;8.370;2022-10-30T11:31:24;98562.00;;;20.09;76.92
18858;BME280;9558;50.178;8.370;2022-10-30T11:34:12;98559.47;;;20.14;76.18
18858;BME280;9558;50.178;8.370;2022-10-30T11:36:39;98566.34;;;20.15;75.12
18858;BME280;9558;50.178;8.370;2022-10-30T11:39:08;98562.22;;;20.19;75.46
18858;BME280;9558;50.178;8.370;2022-10-30T11:41:35;98565.75;;;20.13;69.11
18858;BME280;9558;50.178;8.370;2022-10-30T11:44:02;98558.56;;;20.20;74.53
18858;BME280;9558;50.178;8.370;2022-10-30T11:46:29;98553.31;;;20.20;74.43
18858;BME280;9558;50.178;8.370;2022-10-30T11:48:56;98561.75;;;20.23;73.27
18858;BME280;9558;50.178;8.370;2022-10-30T11:51:32;98556.97;;;20.19;71.84
18858;BME280;9558;50.178;8.370;2022-10-30T11:54:00;98554.13;;;20.21;72.29
18858;BME280;9558;50.178;8.370;2022-10-30T11:56:27;98555.38;;;20.18;72.13
18858;BME280;9558;50.178;8.370;2022-10-30T11:58:56;98552.19;;;20.16;71.58
18858;BME280;9558;50.178;8.370;2022-10-30T12:01:25;98544.16;;;20.11;68.04
18858;BME280;9558;50.178;8.370;2022-10-30T12:03:53;98544.72;;;20.13;72.34
18858;BME280;9558;50.178;8.370;2022-10-30T12:06:26;98545.78;;;20.12;70.46
18858;BME280;9558;50.178;8.370;2022-10-30T12:09:02;98547.34;;;20.13;71.95
18858;BME280;9558;50.178;8.370;2022-10-30T12:11:31;98546.34;;;20.14;71.63
18858;BME280;9558;50.178;8.370;2022-10-30T12:13:59;98537.66;;;20.14;71.68
18858;BME280;9558;50.178;8.370;2022-10-30T12:16:26;98540.50;;;20.12;69.19
18858;BME280;9558;50.178;8.370;2022-10-30T12:18:57;98534.81;;;20.15;69.40
18858;BME280;9558;50.178;8.370;2022-10-30T12:21:26;98532.72;;;20.17;69.35
18858;BME280;9558;50.178;8.370;2022-10-30T12:23:56;98540.63;;;20.17;66.73
18858;BME280;9558;50.178;8.370;2022-10-30T12:26:27;98534.94;;;20.20;69.04
18858;BME280;9558;50.178;8.370;2022-10-30T12:28:57;98532.28;;;20.20;67.00
18858;BME280;9558;50.178;8.370;2022-10-30T12:31:30;98529.31;;;20.29;68.39
18858;BME280;9558;50.178;8.370;2022-10-30T12:34:07;98538.34;;;20.33;68.86
18858;BME280;9558;50.178;8.370;2022-10-30T12:36:43;98529.19;;;20.35;68.24
18858;BME280;9558;50.178;8.370;2022-10-30T12:39:14;98526.22;;;20.44;65.54
18858;BME280;9558;50.178;8.370;2022-10-30T12:41:47;98530.66;;;20.43;66.26
18858;BME280;9558;50.178;8.370;2022-10-30T12:44:21;98529.41;;;20.46;66.18
18858;BME280;9558;50.178;8.370;2022-10-30T12:46:54;98528.16;;;20.48;67.12
18858;BME280;9558;50.178;8.370;2022-10-30T12:49:25;98528.72;;;20.50;66.16
18858;BME280;9558;50.178;8.370;2022-10-30T12:51:58;98516.69;;;20.54;67.25
18858;BME280;9558;50.178;8.370;2022-10-30T12:54:32;98523.81;;;20.54;67.29
18858;BME280;9558;50.178;8.370;2022-10-30T12:57:06;98522.78;;;20.55;63.49
18858;BME280;9558;50.178;8.370;2022-10-30T12:59:39;98510.84;;;20.64;66.40
18858;BME280;9558;50.178;8.370;2022-10-30T13:02:20;98514.88;;;20.67;65.85
18858;BME280;9558;50.178;8.370;2022-10-30T13:04:55;98516.25;;;20.69;65.60
18858;BME280;9558;50.178;8.370;2022-10-30T13:07:26;98510.84;;;20.76;65.74
18858;BME280;9558;50.178;8.370;2022-10-30T13:10:02;98517.81;;;20.82;65.29
18858;BME280;9558;50.178;8.370;2022-10-30T13:12:34;98519.75;;;20.87;64.96
18858;BME280;9558;50.178;8.370;2022-10-30T13:15:08;98520.41;;;20.94;64.52